Terminal Aerodrome Forecast
Issued by NWS Cleveland, OH

Home | Current Version | Previous Version | Text Only | Print | Product List | Glossary Off
Versions: 1 2 3 4 5 6 7 8 9 10 11 12 13 14 15 16 17

000
FTUS41 KCLE 191720
TAFERI
TAF
KERI 191720Z 1918/2018 28014G24KT P6SM -SHSN OVC035
      TEMPO 1918/1922 1SM -SHSN OVC012
     FM192200 29015G25KT 6SM -SHSN OVC025
      TEMPO 1922/2002 3SM -SHSN OVC012
     FM200200 28014G22KT 5SM -SHSN OVC025
     FM200600 26012G20KT P6SM -SHSN OVC035
     FM201400 22014KT P6SM BKN045=

USA.gov is the U.S. government's official web portal to all federal, state and local government web resources and services.